Portada
METAR-TAF:

METAR-TAF

Aeroports :

Lió, França

latitud: 45-43N, longitud: 004-57E, altitud: 200 m

Observació

L'informe es va fer fa 6 hores i 37 minuts, a les 05:00 UTC
Vent 5 kt del Nord
Temperatura 20°C
Humitat 73%
Pressió 1019 hPa
Visibilitat 10 km o més
sense núvols per sota de 1500 mi sense presència de cumulonimbus.

METAR: LFLY 210500Z AUTO 36005KT CAVOK 20/15 Q1019 NOSIG

Hora: 13:37 (11:37 UTC)

Pronòstic

L'informe es va fer fa 6 hores i 37 minuts, a les 05:00 UTC
Pronòstic vàlid del 21 a les 06 UTC al 22 a les 06 UTC
Vent 5 kt del Nord
Visibilitat 10 km o més
sense núvols per sota de 1500 mi sense presència de cumulonimbus.

TAF: LFLY 210500Z 2106/2206 36005KT CAVOK

Observacions i pronòstics meteorològics de més de 4000 aeroports (METAR i TAF).

Les estacions disponibles són els punts grocs i vermells al mapa.

Posi el ratolí al punt desitjat per veure el nom de l'estació.

Feu clic per veure les observacions i els pronòstics meteorològics.

Per canviar el mapa: feu clic els botons verds amb una creu de color negre per apropar; al botó verd amb un guió per allunyar la imatge; o en les fletxes verdes per a mapes adjacents.


METAR-TAF: